Tasman — ZDKI2 — position and weather

sailwx.info

Track history (hours):
 
Tides and Currents Weather Stations Pressure Air Temp Water Temp Dewpoint Dewpoint Depression Visibility Wind Speed Wind Dir Waves Ship Positions

Tasman

Last reported at 2015-May-05 10:16 UTC. Time now 2015-May-05 11:14 UTC.
Position N 54°22' E 018°40'.

Length 90 m; draft 4 m.

Type: Ship. MMSI: 23617000.

Date/timePositionNaut miles runAvg speedWind from/ knotsBaromVisibWave heightAir tempDewpointWater temp
2015-May-05 10:16N 54°22' E 018°40'0 0.0
2015-May-05 09:33N 54°22' E 018°40'0 0.0
2015-May-05 08:32N 54°22' E 018°40'0 0.0
2015-May-05 07:32N 54°22' E 018°40'0 0.0
2015-May-05 06:31N 54°22' E 018°40'0 0.0
2015-May-05 05:31N 54°22' E 018°40'0 0.0
2015-May-05 04:31N 54°22' E 018°40'0 0.0
2015-May-05 03:33N 54°22' E 018°40'0 0.0
2015-May-05 02:30N 54°22' E 018°40'0 0.0
2015-May-05 01:32N 54°22' E 018°40'0 0.0
2015-May-05 00:32N 54°22' E 018°40'0 0.0
2015-May-04 23:31N 54°22' E 018°40'0 0.0
2015-May-04 22:31N 54°22' E 018°40'0 0.0
2015-May-04 21:31N 54°22' E 018°40'0 0.0
2015-May-04 20:30N 54°22' E 018°40'0 0.1
2015-May-04 19:33N 54°22' E 018°40'3 3.0
2015-May-04 18:33N 54°25' E 018°39'1 1.4
2015-May-04 17:32N 54°27' E 018°39'0 0.0
2015-May-04 16:32N 54°27' E 018°39'0 0.0
2015-May-04 15:32N 54°27' E 018°39'0 0.0
2015-May-04 14:31N 54°27' E 018°39'0 0.0
2015-May-04 13:28N 54°27' E 018°39'0 0.0
2015-May-04 12:33N 54°27' E 018°39'0 0.0
2015-May-04 11:33N 54°27' E 018°39'0 0.0
2015-May-04 10:33N 54°27' E 018°39'0 0.0
2015-May-04 09:32N 54°27' E 018°39'0 0.0
2015-May-04 08:32N 54°27' E 018°39'0 0.0
2015-May-04 07:31N 54°27' E 018°39'0 0.0
2015-May-04 06:31N 54°27' E 018°39'0 0.0
2015-May-04 05:33N 54°27' E 018°39'0 0.0
2015-May-04 04:33N 54°27' E 018°39'0 0.0
2015-May-04 03:33N 54°27' E 018°39'0 0.0
2015-May-04 02:32N 54°27' E 018°39'0 0.0
2015-May-04 01:31N 54°27' E 018°39'0 0.0
2015-May-04 00:28N 54°27' E 018°39'0 0.0
2015-May-03 23:31N 54°27' E 018°39'0 0.0
2015-May-03 22:33N 54°27' E 018°39'0 0.0
2015-May-03 21:33N 54°27' E 018°39'0 0.0
2015-May-03 20:33N 54°27' E 018°39'0 0.0
2015-May-03 19:32N 54°27' E 018°39'0 0.0
2015-May-03 18:32N 54°27' E 018°39'0 0.0
2015-May-03 17:28N 54°27' E 018°39'0 0.0
2015-May-03 16:28N 54°27' E 018°39'0 0.0
2015-May-03 15:33N 54°27' E 018°39'0 0.0
2015-May-03 14:33N 54°27' E 018°39'0 0.0
2015-May-03 13:34N 54°27' E 018°39'0 0.0
2015-May-03 12:33N 54°27' E 018°39'1 0.8
2015-May-03 11:33N 54°27' E 018°40'1211.6
2015-May-03 10:33N 54°36' E 018°53'1110.9
2015-May-03 09:33N 54°47' E 018°57'1111.0
2015-May-03 08:33N 54°54' E 018°42'1211.3
2015-May-03 07:32N 54°55' E 018°22'15111.3
2015-May-02 18:08N 54°01' E 014°18'5 9.4
2015-May-02 17:33N 53°56' E 014°17'7 7.2
2015-May-02 16:33N 53°49' E 014°20'1212.3
2015-May-02 15:33N 53°39' E 014°32'1111.0
2015-May-02 14:33N 53°29' E 014°37'3 3.0
2015-May-02 13:33N 53°26' E 014°35'0 0.0
2015-May-02 12:33N 53°26' E 014°35'0 0.0
2015-May-02 11:33N 53°26' E 014°35'0 0.0
2015-May-02 10:29N 53°26' E 014°35'0 0.0
2015-May-02 09:32N 53°26' E 014°35'0 0.0
2015-May-02 08:31N 53°26' E 014°35'0 0.0
2015-May-02 07:31N 53°26' E 014°35'0 0.0
2015-May-02 06:33N 53°26' E 014°35'0 0.0
2015-May-02 05:33N 53°26' E 014°35'0 0.0
2015-May-02 04:33N 53°26' E 014°35'0 0.0
2015-May-02 03:32N 53°26' E 014°35'0 0.0
2015-May-02 02:32N 53°26' E 014°35'0 0.0
2015-May-02 01:31N 53°26' E 014°35'0 0.0
2015-May-02 00:31N 53°26' E 014°35'0 0.0
2015-May-01 23:33N 53°26' E 014°35'0 0.0
2015-May-01 22:33N 53°26' E 014°35'0 0.1
2015-May-01 21:34N 53°26' E 014°35'7 7.0
2015-May-01 20:33N 53°33' E 014°37'10 9.6
2015-May-01 19:33N 53°42' E 014°29'1110.7
2015-May-01 18:33N 53°50' E 014°18'8 7.7
2015-May-01 17:33N 53°58' E 014°16'8 7.6
2015-May-01 16:33N 54°05' E 014°13'1110.5
2015-May-01 15:33N 54°15' E 014°09'1110.9
2015-May-01 14:33N 54°22' E 013°55'1111.0
2015-May-01 13:33N 54°32' E 013°46'1111.1
2015-May-01 12:33N 54°42' E 013°37'1111.4
2015-May-01 11:33N 54°51' E 013°26'3311.0
2015-May-01 08:33N 55°16' E 012°47'9 8.9
2015-May-01 07:33N 55°23' E 012°39'1010.5
2015-May-01 06:33N 55°34' E 012°42'10 9.5
2015-May-01 05:33N 55°43' E 012°41'1010.3
2015-May-01 04:33N 55°53' E 012°39'1010.2
2015-May-01 03:33N 56°03' E 012°38'1010.3
2015-May-01 02:33N 56°10' E 012°23'1111.4
2015-May-01 01:33N 56°17' E 012°07'1611.4
2015-May-01 00:10N 56°32' E 011°58'711.3
2015-Apr-30 23:33N 56°38' E 011°55'1111.2
2015-Apr-30 22:33N 56°49' E 011°50'1111.4
2015-Apr-30 21:33N 56°60' E 011°43'1611.1
2015-Apr-30 20:08N 57°15' E 011°37'610.5
2015-Apr-30 19:34N 57°21' E 011°38'1010.2
2015-Apr-30 18:33N 57°32' E 011°38'4 4.4
2015-Apr-30 17:33N 57°36' E 011°41'0 0.0
2015-Apr-30 16:32N 57°36' E 011°41'0 0.0
2015-Apr-30 15:32N 57°36' E 011°41'0 0.0
2015-Apr-30 14:28N 57°36' E 011°41'0 0.0
2015-Apr-30 13:33N 57°36' E 011°41'6 5.8
2015-Apr-30 12:32N 57°37' E 011°30'1110.8
2015-Apr-30 11:33N 57°41' E 011°12'1110.8
2015-Apr-30 10:32N 57°46' E 010°54'18510.8
2015-Apr-29 17:18N 55°37' E 006°50'810.9
2015-Apr-29 16:33N 55°31' E 006°42'8710.8
2015-Apr-29 08:30N 54°15' E 005°27'1010.8
2015-Apr-29 07:34N 54°06' E 005°19'1110.8
2015-Apr-29 06:33N 53°56' E 005°10'1111.0
2015-Apr-29 05:33N 53°47' E 005°01'1111.3
2015-Apr-29 04:33N 53°37' E 004°52'1211.3
2015-Apr-29 03:30N 53°26' E 004°43'1111.6
2015-Apr-29 02:31N 53°16' E 004°36'12311.1
2015-Apr-28 15:31N 51°40' E 002°30'1010.2
2015-Apr-28 14:33N 51°32' E 002°20'2210.7
2015-Apr-28 12:32N 51°14' E 002°02'1111.1
2015-Apr-28 11:33N 51°07' E 001°48'1111.4
2015-Apr-28 10:33N 50°59' E 001°36'  
Track history (hours):
 
Tides and Currents Weather Stations Pressure Air Temp Water Temp Dewpoint Dewpoint Depression Visibility Wind Speed Wind Dir Waves Ship Positions

Tasman

Last reported at 2015-May-05 10:16 UTC. Time now 2015-May-05 11:14 UTC.
Position N 54°22' E 018°40'.

Length 90 m; draft 4 m.

Type: Ship. MMSI: 23617000.

Date/timePositionNaut miles runAvg speedWind from/ knotsBaromVisibWave heightAir tempDewpointWater temp
2015-May-05 10:16N 54°22' E 018°40'0 0.0
2015-May-05 09:33N 54°22' E 018°40'0 0.0
2015-May-05 08:32N 54°22' E 018°40'0 0.0
2015-May-05 07:32N 54°22' E 018°40'0 0.0
2015-May-05 06:31N 54°22' E 018°40'0 0.0
2015-May-05 05:31N 54°22' E 018°40'0 0.0
2015-May-05 04:31N 54°22' E 018°40'0 0.0
2015-May-05 03:33N 54°22' E 018°40'0 0.0
2015-May-05 02:30N 54°22' E 018°40'0 0.0
2015-May-05 01:32N 54°22' E 018°40'0 0.0
2015-May-05 00:32N 54°22' E 018°40'0 0.0
2015-May-04 23:31N 54°22' E 018°40'0 0.0
2015-May-04 22:31N 54°22' E 018°40'0 0.0
2015-May-04 21:31N 54°22' E 018°40'0 0.0
2015-May-04 20:30N 54°22' E 018°40'0 0.1
2015-May-04 19:33N 54°22' E 018°40'3 3.0
2015-May-04 18:33N 54°25' E 018°39'1 1.4
2015-May-04 17:32N 54°27' E 018°39'0 0.0
2015-May-04 16:32N 54°27' E 018°39'0 0.0
2015-May-04 15:32N 54°27' E 018°39'0 0.0
2015-May-04 14:31N 54°27' E 018°39'0 0.0
2015-May-04 13:28N 54°27' E 018°39'0 0.0
2015-May-04 12:33N 54°27' E 018°39'0 0.0
2015-May-04 11:33N 54°27' E 018°39'0 0.0
2015-May-04 10:33N 54°27' E 018°39'0 0.0
2015-May-04 09:32N 54°27' E 018°39'0 0.0
2015-May-04 08:32N 54°27' E 018°39'0 0.0
2015-May-04 07:31N 54°27' E 018°39'0 0.0
2015-May-04 06:31N 54°27' E 018°39'0 0.0
2015-May-04 05:33N 54°27' E 018°39'0 0.0
2015-May-04 04:33N 54°27' E 018°39'0 0.0
2015-May-04 03:33N 54°27' E 018°39'0 0.0
2015-May-04 02:32N 54°27' E 018°39'0 0.0
2015-May-04 01:31N 54°27' E 018°39'0 0.0
2015-May-04 00:28N 54°27' E 018°39'0 0.0
2015-May-03 23:31N 54°27' E 018°39'0 0.0
2015-May-03 22:33N 54°27' E 018°39'0 0.0
2015-May-03 21:33N 54°27' E 018°39'0 0.0
2015-May-03 20:33N 54°27' E 018°39'0 0.0
2015-May-03 19:32N 54°27' E 018°39'0 0.0
2015-May-03 18:32N 54°27' E 018°39'0 0.0
2015-May-03 17:28N 54°27' E 018°39'0 0.0
2015-May-03 16:28N 54°27' E 018°39'0 0.0
2015-May-03 15:33N 54°27' E 018°39'0 0.0
2015-May-03 14:33N 54°27' E 018°39'0 0.0
2015-May-03 13:34N 54°27' E 018°39'0 0.0
2015-May-03 12:33N 54°27' E 018°39'1 0.8
2015-May-03 11:33N 54°27' E 018°40'1211.6
2015-May-03 10:33N 54°36' E 018°53'1110.9
2015-May-03 09:33N 54°47' E 018°57'1111.0
2015-May-03 08:33N 54°54' E 018°42'1211.3
2015-May-03 07:32N 54°55' E 018°22'15111.3
2015-May-02 18:08N 54°01' E 014°18'5 9.4
2015-May-02 17:33N 53°56' E 014°17'7 7.2
2015-May-02 16:33N 53°49' E 014°20'1212.3
2015-May-02 15:33N 53°39' E 014°32'1111.0
2015-May-02 14:33N 53°29' E 014°37'3 3.0
2015-May-02 13:33N 53°26' E 014°35'0 0.0
2015-May-02 12:33N 53°26' E 014°35'0 0.0
2015-May-02 11:33N 53°26' E 014°35'0 0.0
2015-May-02 10:29N 53°26' E 014°35'0 0.0
2015-May-02 09:32N 53°26' E 014°35'0 0.0
2015-May-02 08:31N 53°26' E 014°35'0 0.0
2015-May-02 07:31N 53°26' E 014°35'0 0.0
2015-May-02 06:33N 53°26' E 014°35'0 0.0
2015-May-02 05:33N 53°26' E 014°35'0 0.0
2015-May-02 04:33N 53°26' E 014°35'0 0.0
2015-May-02 03:32N 53°26' E 014°35'0 0.0
2015-May-02 02:32N 53°26' E 014°35'0 0.0
2015-May-02 01:31N 53°26' E 014°35'0 0.0
2015-May-02 00:31N 53°26' E 014°35'0 0.0
2015-May-01 23:33N 53°26' E 014°35'0 0.0
2015-May-01 22:33N 53°26' E 014°35'0 0.1
2015-May-01 21:34N 53°26' E 014°35'7 7.0
2015-May-01 20:33N 53°33' E 014°37'10 9.6
2015-May-01 19:33N 53°42' E 014°29'1110.7
2015-May-01 18:33N 53°50' E 014°18'8 7.7
2015-May-01 17:33N 53°58' E 014°16'8 7.6
2015-May-01 16:33N 54°05' E 014°13'1110.5
2015-May-01 15:33N 54°15' E 014°09'1110.9
2015-May-01 14:33N 54°22' E 013°55'1111.0
2015-May-01 13:33N 54°32' E 013°46'1111.1
2015-May-01 12:33N 54°42' E 013°37'1111.4
2015-May-01 11:33N 54°51' E 013°26'3311.0
2015-May-01 08:33N 55°16' E 012°47'9 8.9
2015-May-01 07:33N 55°23' E 012°39'1010.5
2015-May-01 06:33N 55°34' E 012°42'10 9.5
2015-May-01 05:33N 55°43' E 012°41'1010.3
2015-May-01 04:33N 55°53' E 012°39'1010.2
2015-May-01 03:33N 56°03' E 012°38'1010.3
2015-May-01 02:33N 56°10' E 012°23'1111.4
2015-May-01 01:33N 56°17' E 012°07'1611.4
2015-May-01 00:10N 56°32' E 011°58'711.3
2015-Apr-30 23:33N 56°38' E 011°55'1111.2
2015-Apr-30 22:33N 56°49' E 011°50'1111.4
2015-Apr-30 21:33N 56°60' E 011°43'1611.1
2015-Apr-30 20:08N 57°15' E 011°37'610.5
2015-Apr-30 19:34N 57°21' E 011°38'1010.2
2015-Apr-30 18:33N 57°32' E 011°38'4 4.4
2015-Apr-30 17:33N 57°36' E 011°41'0 0.0
2015-Apr-30 16:32N 57°36' E 011°41'0 0.0
2015-Apr-30 15:32N 57°36' E 011°41'0 0.0
2015-Apr-30 14:28N 57°36' E 011°41'0 0.0
2015-Apr-30 13:33N 57°36' E 011°41'6 5.8
2015-Apr-30 12:32N 57°37' E 011°30'1110.8
2015-Apr-30 11:33N 57°41' E 011°12'1110.8
2015-Apr-30 10:32N 57°46' E 010°54'18510.8
2015-Apr-29 17:18N 55°37' E 006°50'810.9
2015-Apr-29 16:33N 55°31' E 006°42'8710.8
2015-Apr-29 08:30N 54°15' E 005°27'1010.8
2015-Apr-29 07:34N 54°06' E 005°19'1110.8
2015-Apr-29 06:33N 53°56' E 005°10'1111.0
2015-Apr-29 05:33N 53°47' E 005°01'1111.3
2015-Apr-29 04:33N 53°37' E 004°52'1211.3
2015-Apr-29 03:30N 53°26' E 004°43'1111.6
2015-Apr-29 02:31N 53°16' E 004°36'12311.1
2015-Apr-28 15:31N 51°40' E 002°30'1010.2
2015-Apr-28 14:33N 51°32' E 002°20'2210.7
2015-Apr-28 12:32N 51°14' E 002°02'1111.1
2015-Apr-28 11:33N 51°07' E 001°48'1111.4
2015-Apr-28 10:33N 50°59' E 001°36'  

Dump ship's entire track history